Terminal Aerodrome Forecast
Issued by NWS

Home | Current Version | Previous Version | Graphics & Text | Print | Product List | Glossary On
Versions: 1 2 3 4 5 6 7 8 9 10 11 12 13 14 15 16 17 18 19 20 21 22 23 24
264
FTUS43 KBIS 241603 AAA
TAFMOT
TAF AMD
KMOT 241603Z 2416/2512 11010KT 3SM -RA BR OVC006
      TEMPO 2416/2418 TSRA OVC006CB
     FM241800 14010KT P6SM BKN015
     FM242100 18009KT P6SM BKN040
     FM250200 28009KT P6SM BKN025
     FM250500 32017G23KT P6SM -SHRA OVC008
     FM251100 31021G29KT P6SM -SHRA OVC025=

USA.gov is the U.S. government's official web portal to all federal, state and local government web resources and services.